Time;durP1;ratioP1;P1;durP2;ratioP2;P2;SDS_P1;SDS_P2;PMS_P1;PMS_P2;Temp;Humidity;BMP_temperature;BMP_pressure;BME280_temperature;BME280_humidity;BME280_pressure;Samples;Min_cycle;Max_cycle;Signal;HPM_P1;HPM_P2
2023/05/04 00:02:02;;;;;;;3.83;3.47;;;9.20;99.90;;;;;;4994127;28;20026;-76
2023/05/04 00:04:27;;;;;;;3.92;3.60;;;9.20;99.90;;;;;;4993486;28;20105;-78
2023/05/04 00:06:53;;;;;;;4.63;3.60;;;9.10;99.90;;;;;;4994086;28;20046;-77
2023/05/04 00:09:18;;;;;;;4.22;3.83;;;9.10;99.90;;;;;;4992852;28;20038;-78
2023/05/04 00:11:44;;;;;;;4.00;3.55;;;9.10;99.90;;;;;;4993062;28;20325;-76
2023/05/04 00:14:10;;;;;;;3.50;3.20;;;9.10;99.90;;;;;;4991165;28;20061;-78
2023/05/04 00:16:36;;;;;;;4.70;4.28;;;9.00;99.90;;;;;;4974743;28;20654;-77
2023/05/04 00:19:01;;;;;;;3.65;3.28;;;9.00;99.90;;;;;;4984904;28;20045;-76
2023/05/04 00:21:27;;;;;;;3.70;3.40;;;9.00;99.90;;;;;;4993401;28;20391;-78
2023/05/04 00:23:53;;;;;;;4.00;3.60;;;9.00;99.90;;;;;;4992875;28;20084;-76
2023/05/04 00:26:18;;;;;;;4.10;3.70;;;8.90;99.90;;;;;;4993280;28;20030;-77
2023/05/04 00:28:44;;;;;;;4.38;3.92;;;8.90;99.90;;;;;;4993165;28;20038;-77
2023/05/04 00:31:10;;;;;;;4.82;4.00;;;8.90;99.90;;;;;;4975804;28;20026;-76
2023/05/04 00:33:38;;;;;;;3.55;3.25;;;8.80;99.90;;;;;;4993075;28;20502;-77
2023/05/04 00:36:04;;;;;;;3.60;3.30;;;8.80;99.90;;;;;;4991808;28;20022;-77
2023/05/04 00:38:30;;;;;;;3.80;3.45;;;8.70;99.90;;;;;;4974926;28;20490;-77
2023/05/04 00:40:57;;;;;;;5.28;3.85;;;8.80;99.90;;;;;;4988746;28;20486;-77
2023/05/04 00:43:24;;;;;;;4.43;3.83;;;8.80;99.90;;;;;;4993250;28;20393;-77
2023/05/04 00:45:50;;;;;;;4.10;3.50;;;8.70;99.90;;;;;;4991335;28;20022;-77
2023/05/04 00:48:15;;;;;;;3.38;3.17;;;8.70;99.90;;;;;;4986373;28;20027;-77
2023/05/04 00:50:41;;;;;;;3.47;3.17;;;8.70;99.90;;;;;;4991461;28;20030;-77
2023/05/04 00:53:09;;;;;;;4.32;3.90;;;8.60;99.90;;;;;;4990472;28;20133;-77
2023/05/04 00:55:39;;;;;;;3.90;3.50;;;8.60;99.90;;;;;;4991974;28;20034;-76
2023/05/04 00:58:06;;;;;;;4.80;4.03;;;8.60;99.90;;;;;;4992299;28;20057;-77
2023/05/04 01:00:32;;;;;;;5.22;4.60;;;8.60;99.90;;;;;;4976116;28;20392;-77
2023/05/04 01:02:58;;;;;;;5.30;4.60;;;8.50;99.90;;;;;;4980869;28;20023;-77
2023/05/04 01:06:11;;;;;;;5.20;4.70;;;8.50;99.90;;;;;;4995131;28;20290;-84
2023/05/04 01:08:44;;;;;;;5.63;5.00;;;8.50;99.90;;;;;;4975977;28;20384;-77
2023/05/04 01:11:14;;;;;;;5.25;4.75;;;8.40;99.90;;;;;;4994466;28;20029;-77
2023/05/04 01:13:41;;;;;;;5.95;4.95;;;8.40;99.90;;;;;;4993930;28;20026;-78
2023/05/04 01:16:07;;;;;;;5.78;4.00;;;8.40;99.90;;;;;;4991459;28;20019;-77
2023/05/04 01:18:33;;;;;;;5.35;4.28;;;8.30;99.90;;;;;;4968354;28;20026;-78
2023/05/04 01:20:59;;;;;;;5.00;4.20;;;8.40;99.90;;;;;;4995150;28;20472;-77
2023/05/04 01:23:25;;;;;;;4.75;4.28;;;8.30;99.90;;;;;;4979421;28;20037;-77
2023/05/04 01:26:26;;;;;;;5.63;4.97;;;8.30;99.90;;;;;;5006541;22;20712;-76
2023/05/04 01:29:04;;;;;;;6.10;5.50;;;8.30;99.90;;;;;;4973161;28;20431;-76
2023/05/04 01:31:31;;;;;;;6.45;5.75;;;8.30;99.90;;;;;;4984826;28;20078;-75
2023/05/04 01:33:57;;;;;;;6.68;5.78;;;8.30;99.90;;;;;;4995396;28;20045;-76
2023/05/04 01:36:24;;;;;;;6.78;5.97;;;8.20;99.90;;;;;;4996070;28;20018;-76
2023/05/04 01:38:58;;;;;;;7.13;5.60;;;8.20;99.90;;;;;;4975798;28;20105;-75
2023/05/04 01:41:25;;;;;;;5.78;4.80;;;8.20;99.90;;;;;;4985503;28;20105;-77
2023/05/04 01:43:53;;;;;;;6.05;5.35;;;8.20;99.90;;;;;;4996552;28;20030;-76
2023/05/04 01:46:18;;;;;;;5.20;4.65;;;8.10;99.90;;;;;;4989655;28;20030;-76
2023/05/04 01:48:44;;;;;;;6.07;4.97;;;8.10;99.90;;;;;;4971973;28;20391;-77
2023/05/04 01:51:10;;;;;;;5.55;4.95;;;8.10;99.90;;;;;;4996324;28;20479;-76
2023/05/04 01:53:35;;;;;;;8.73;6.10;;;8.10;99.90;;;;;;4978100;28;20041;-76
2023/05/04 01:56:02;;;;;;;7.32;5.82;;;8.10;99.90;;;;;;4990996;28;20480;-74
2023/05/04 01:58:27;;;;;;;9.10;6.35;;;8.00;99.90;;;;;;4995549;28;20022;-76
2023/05/04 02:00:53;;;;;;;8.30;6.43;;;8.00;99.90;;;;;;4995508;28;20018;-76
2023/05/04 02:03:18;;;;;;;7.93;6.20;;;8.10;99.90;;;;;;4995321;28;20097;-76
2023/05/04 02:05:44;;;;;;;6.35;5.75;;;8.00;99.90;;;;;;4995000;28;20030;-76
2023/05/04 02:08:10;;;;;;;6.65;5.45;;;8.00;99.90;;;;;;4989148;28;20109;-76
2023/05/04 02:10:35;;;;;;;6.60;5.43;;;7.90;99.90;;;;;;5001245;28;20067;-75
2023/05/04 02:13:01;;;;;;;6.00;4.80;;;8.00;99.90;;;;;;5009253;28;20030;-76
2023/05/04 02:15:27;;;;;;;9.38;7.35;;;8.00;99.90;;;;;;4987289;28;20101;-77
2023/05/04 02:17:52;;;;;;;10.07;7.43;;;7.90;99.90;;;;;;5010767;28;20034;-77
2023/05/04 02:20:18;;;;;;;7.78;6.70;;;7.90;99.90;;;;;;4995085;28;20038;-76
2023/05/04 02:22:44;;;;;;;8.57;6.55;;;7.90;99.90;;;;;;5000183;28;20038;-76
2023/05/04 02:25:10;;;;;;;11.35;7.90;;;7.90;99.90;;;;;;4998336;28;20426;-76
2023/05/04 02:27:35;;;;;;;9.57;8.52;;;7.90;99.90;;;;;;4985901;28;20038;-77
2023/05/04 02:30:01;;;;;;;10.93;8.95;;;7.90;99.90;;;;;;4997236;28;20037;-77
2023/05/04 02:32:27;;;;;;;10.27;8.35;;;7.80;99.90;;;;;;4991719;28;20054;-76
2023/05/04 02:34:52;;;;;;;9.88;7.88;;;7.80;99.90;;;;;;4974774;28;20046;-76
2023/05/04 02:37:18;;;;;;;13.15;8.55;;;7.80;99.90;;;;;;4983355;28;20434;-77
2023/05/04 02:39:44;;;;;;;10.80;8.65;;;7.80;99.90;;;;;;4994553;28;20015;-76
2023/05/04 02:42:10;;;;;;;12.52;9.75;;;7.70;99.90;;;;;;4994850;28;20387;-76
2023/05/04 02:44:35;;;;;;;12.50;9.23;;;7.70;99.90;;;;;;4978356;28;20032;-75
2023/05/04 02:47:01;;;;;;;9.68;8.40;;;7.70;99.90;;;;;;4991058;28;20101;-77
2023/05/04 02:49:26;;;;;;;10.27;8.30;;;7.60;99.90;;;;;;4983205;28;20102;-77
2023/05/04 02:51:52;;;;;;;9.73;7.82;;;7.60;99.90;;;;;;4994286;28;20086;-76
2023/05/04 02:54:18;;;;;;;7.90;6.75;;;7.60;99.90;;;;;;4981640;28;20405;-77
2023/05/04 02:56:43;;;;;;;8.02;6.53;;;7.60;99.90;;;;;;4978410;28;20091;-77
2023/05/04 02:59:09;;;;;;;7.85;6.45;;;7.60;99.90;;;;;;4983044;28;20076;-77
2023/05/04 03:01:34;;;;;;;7.63;6.50;;;7.60;99.90;;;;;;4994008;28;20031;-75
2023/05/04 03:04:00;;;;;;;6.45;5.80;;;7.60;99.90;;;;;;4993265;28;20030;-76
2023/05/04 03:06:26;;;;;;;7.13;6.18;;;7.60;99.90;;;;;;4994367;28;20037;-76
2023/05/04 03:08:51;;;;;;;6.07;5.40;;;7.50;99.90;;;;;;4985814;28;20034;-76
2023/05/04 03:11:17;;;;;;;6.32;5.28;;;7.50;99.90;;;;;;4993665;28;20033;-77
2023/05/04 03:13:42;;;;;;;6.03;5.30;;;7.50;99.90;;;;;;4985194;28;20494;-76
2023/05/04 03:16:08;;;;;;;5.40;4.88;;;7.50;99.90;;;;;;4993073;28;20485;-77
2023/05/04 03:18:34;;;;;;;6.47;5.55;;;7.50;99.90;;;;;;4992770;28;20073;-76
2023/05/04 03:20:59;;;;;;;5.55;4.97;;;7.40;99.90;;;;;;4993715;28;20138;-77
2023/05/04 03:23:25;;;;;;;5.68;4.47;;;7.40;99.90;;;;;;4993814;28;20487;-78
2023/05/04 03:25:51;;;;;;;5.00;4.38;;;7.40;99.90;;;;;;4982837;28;20137;-77
2023/05/04 03:28:16;;;;;;;4.65;4.05;;;7.40;99.90;;;;;;4990148;28;20037;-76
2023/05/04 03:30:42;;;;;;;5.35;4.68;;;7.40;99.90;;;;;;4992010;28;20026;-75
2023/05/04 03:33:08;;;;;;;4.88;4.38;;;7.30;99.90;;;;;;4993041;28;20093;-76
2023/05/04 03:35:33;;;;;;;5.32;4.80;;;7.30;99.90;;;;;;4992703;28;20030;-76
2023/05/04 03:37:59;;;;;;;7.18;5.43;;;7.30;99.90;;;;;;4993036;28;20046;-76
2023/05/04 03:40:25;;;;;;;7.63;6.07;;;7.30;99.90;;;;;;4993948;28;20018;-77
2023/05/04 03:42:51;;;;;;;8.25;6.82;;;7.30;99.90;;;;;;4989562;28;20025;-77
2023/05/04 03:45:17;;;;;;;8.20;6.55;;;7.30;99.90;;;;;;4980576;28;20471;-76
2023/05/04 03:47:43;;;;;;;8.93;7.72;;;7.30;99.90;;;;;;4985416;28;20061;-77
2023/05/04 03:50:10;;;;;;;10.07;7.88;;;7.30;99.90;;;;;;4994390;28;20030;-78
2023/05/04 03:52:35;;;;;;;11.77;8.63;;;7.30;99.90;;;;;;4994234;28;20476;-77
2023/05/04 03:55:01;;;;;;;10.50;8.60;;;7.40;99.90;;;;;;4966680;28;20114;-76
2023/05/04 03:57:26;;;;;;;10.40;8.40;;;7.40;99.90;;;;;;4994515;28;20304;-77
2023/05/04 03:59:52;;;;;;;11.35;8.32;;;7.40;99.90;;;;;;4996957;28;20038;-77
2023/05/04 04:02:18;;;;;;;10.80;9.02;;;7.40;99.90;;;;;;4980284;28;20410;-77
2023/05/04 04:04:44;;;;;;;14.15;10.65;;;7.40;99.90;;;;;;4992630;28;20172;-77
2023/05/04 04:07:09;;;;;;;13.13;10.05;;;7.30;99.90;;;;;;4973872;28;20061;-77
2023/05/04 04:09:35;;;;;;;13.60;10.50;;;7.40;99.90;;;;;;4992924;28;20035;-76
2023/05/04 04:12:01;;;;;;;13.85;9.73;;;7.40;99.90;;;;;;4993287;28;20030;-76
2023/05/04 04:14:27;;;;;;;12.10;8.93;;;7.40;99.90;;;;;;4992559;28;20030;-76
2023/05/04 04:16:52;;;;;;;10.07;8.13;;;7.50;99.90;;;;;;4992763;28;20034;-76
2023/05/04 04:19:18;;;;;;;11.13;7.22;;;7.60;99.90;;;;;;4969830;28;20030;-77
2023/05/04 04:21:44;;;;;;;8.40;6.82;;;7.60;99.90;;;;;;4994170;28;20023;-76
2023/05/04 04:24:10;;;;;;;8.60;6.65;;;7.50;99.90;;;;;;4987283;28;20089;-77
2023/05/04 04:26:35;;;;;;;9.27;7.20;;;7.60;99.90;;;;;;4975387;28;20723;-75
2023/05/04 04:29:02;;;;;;;9.93;7.95;;;7.60;99.90;;;;;;4974033;28;20026;-77
2023/05/04 04:31:29;;;;;;;13.82;10.70;;;7.60;99.90;;;;;;4974001;28;20036;-77
2023/05/04 04:33:55;;;;;;;13.68;10.27;;;7.60;99.90;;;;;;4973560;28;20037;-77
2023/05/04 04:36:21;;;;;;;11.63;9.38;;;7.60;99.90;;;;;;4974375;28;20023;-76
2023/05/04 04:38:46;;;;;;;12.05;9.38;;;7.70;99.90;;;;;;4974134;28;20219;-77
2023/05/04 04:41:12;;;;;;;10.95;8.80;;;7.80;99.90;;;;;;4975103;28;20400;-76
2023/05/04 04:43:38;;;;;;;11.65;8.57;;;7.80;99.90;;;;;;4972725;28;20443;-76
2023/05/04 04:46:04;;;;;;;11.10;8.80;;;7.80;99.90;;;;;;4993355;28;20022;-76
2023/05/04 04:48:30;;;;;;;11.68;9.15;;;7.90;99.90;;;;;;4987304;28;20495;-76
2023/05/04 04:50:56;;;;;;;12.70;10.20;;;7.90;99.90;;;;;;4957760;28;20524;-77
2023/05/04 04:53:21;;;;;;;12.85;9.85;;;8.00;99.90;;;;;;4975266;28;20027;-76
2023/05/04 04:55:47;;;;;;;14.32;11.43;;;8.00;99.90;;;;;;4977289;28;20118;-76
2023/05/04 04:58:13;;;;;;;13.70;10.57;;;8.10;99.90;;;;;;4979949;28;20046;-77
2023/05/04 05:00:39;;;;;;;10.45;8.73;;;8.10;99.90;;;;;;4981813;28;20091;-77
2023/05/04 05:03:04;;;;;;;12.18;9.20;;;8.20;99.90;;;;;;4981857;28;20420;-76
2023/05/04 05:05:30;;;;;;;12.90;8.82;;;8.20;99.90;;;;;;4989015;28;20031;-75
2023/05/04 05:07:56;;;;;;;10.18;7.97;;;8.40;99.90;;;;;;4997875;28;20480;-76
2023/05/04 05:10:21;;;;;;;7.55;6.75;;;8.60;99.90;;;;;;4987701;28;20027;-77
2023/05/04 05:12:49;;;;;;;7.60;6.45;;;8.80;99.90;;;;;;4991155;28;20033;-78
2023/05/04 05:15:15;;;;;;;7.22;5.57;;;8.90;99.90;;;;;;4995008;28;20033;-77
2023/05/04 05:17:40;;;;;;;8.15;6.55;;;9.00;99.90;;;;;;4998057;28;20101;-77
2023/05/04 05:20:10;;;;;;;8.20;6.82;;;9.00;99.90;;;;;;4962583;28;20077;-77
2023/05/04 05:22:37;;;;;;;7.97;6.40;;;9.10;99.90;;;;;;4980339;28;20022;-77
2023/05/04 05:25:04;;;;;;;9.82;7.68;;;9.10;99.90;;;;;;4978403;28;20023;-77
2023/05/04 05:27:29;;;;;;;9.77;8.07;;;9.10;99.90;;;;;;4977950;28;20081;-77
2023/05/04 05:29:56;;;;;;;8.73;7.45;;;9.20;99.90;;;;;;4986653;28;20030;-76
2023/05/04 05:32:21;;;;;;;9.63;7.28;;;9.20;99.90;;;;;;4997863;28;20033;-77
2023/05/04 05:34:47;;;;;;;8.43;7.20;;;9.30;99.90;;;;;;4996628;28;20511;-76
2023/05/04 05:37:13;;;;;;;10.10;8.30;;;9.30;99.90;;;;;;4998523;28;20018;-76
2023/05/04 05:39:38;;;;;;;8.07;7.25;;;9.40;99.90;;;;;;4998043;28;20022;-78
2023/05/04 05:42:04;;;;;;;10.30;7.97;;;9.40;99.90;;;;;;4997879;28;20110;-76
2023/05/04 05:44:30;;;;;;;8.73;7.28;;;9.60;99.90;;;;;;4996187;28;20026;-77
2023/05/04 05:46:56;;;;;;;8.60;7.30;;;9.80;99.90;;;;;;4998779;28;20046;-76
2023/05/04 05:49:21;;;;;;;11.38;8.85;;;9.90;99.90;;;;;;4984333;28;20041;-76
2023/05/04 05:51:47;;;;;;;11.20;9.18;;;9.90;99.90;;;;;;4997752;28;20023;-77
2023/05/04 05:54:13;;;;;;;11.20;9.65;;;10.00;99.90;;;;;;4985105;28;20439;-76
2023/05/04 05:56:38;;;;;;;10.15;8.45;;;10.00;99.90;;;;;;4999701;28;20023;-80
2023/05/04 05:59:07;;;;;;;9.65;7.43;;;10.10;99.90;;;;;;4998592;28;20018;-77
2023/05/04 06:01:32;;;;;;;6.85;6.15;;;10.30;99.90;;;;;;4980548;28;20044;-79
2023/05/04 06:03:58;;;;;;;6.20;5.60;;;10.70;99.90;;;;;;4979205;28;20501;-79
2023/05/04 06:06:24;;;;;;;5.35;4.85;;;12.10;99.90;;;;;;4996548;28;20535;-78
2023/05/04 06:08:49;;;;;;;5.20;4.57;;;14.00;97.60;;;;;;4997973;28;20026;-77
2023/05/04 06:11:15;;;;;;;3.90;3.53;;;15.20;93.70;;;;;;4997313;28;20105;-78
2023/05/04 06:13:41;;;;;;;4.38;3.97;;;16.50;91.20;;;;;;4996937;28;20023;-79
2023/05/04 06:16:06;;;;;;;3.45;3.05;;;17.10;85.40;;;;;;4996537;28;20018;-77
2023/05/04 06:18:35;;;;;;;2.28;2.08;;;17.80;83.10;;;;;;4993332;28;20026;-76
2023/05/04 06:21:01;;;;;;;2.25;2.08;;;18.50;79.20;;;;;;4998353;22;20042;-78
2023/05/04 06:23:28;;;;;;;2.50;2.30;;;18.80;74.00;;;;;;4960442;28;20030;-78
2023/05/04 06:25:54;;;;;;;1.35;1.35;;;19.30;73.60;;;;;;4976065;28;20026;-76
2023/05/04 06:28:19;;;;;;;1.95;1.75;;;20.00;70.50;;;;;;4978242;28;20027;-76
2023/05/04 06:30:45;;;;;;;1.75;1.63;;;20.30;67.60;;;;;;4980162;28;20464;-78
2023/05/04 06:33:11;;;;;;;2.00;1.90;;;20.80;66.10;;;;;;4989928;28;20106;-77
2023/05/04 06:35:37;;;;;;;1.75;1.65;;;21.30;63.40;;;;;;4997882;28;20034;-77
2023/05/04 06:38:02;;;;;;;2.25;2.05;;;21.50;62.40;;;;;;4982271;28;20098;-78
2023/05/04 06:40:29;;;;;;;2.10;1.92;;;22.00;60.20;;;;;;4999777;28;20071;-78
2023/05/04 06:42:55;;;;;;;1.55;1.45;;;22.10;58.80;;;;;;5002179;28;20486;-79
2023/05/04 06:45:21;;;;;;;1.60;1.50;;;22.10;58.60;;;;;;4986216;28;20038;-77
2023/05/04 06:47:46;;;;;;;1.70;1.60;;;22.00;57.90;;;;;;5002238;28;20105;-78
2023/05/04 06:50:13;;;;;;;1.60;1.50;;;22.00;57.70;;;;;;5000231;28;20160;-78
2023/05/04 06:52:40;;;;;;;2.53;2.33;;;22.00;57.30;;;;;;4981945;28;20023;-78
2023/05/04 06:55:06;;;;;;;2.58;2.17;;;21.80;56.90;;;;;;4998965;28;20023;-77
2023/05/04 06:57:32;;;;;;;3.80;3.50;;;21.40;57.00;;;;;;4979555;28;20026;-77
2023/05/04 06:59:58;;;;;;;2.63;2.42;;;19.80;58.40;;;;;;4982145;28;20058;-77
2023/05/04 07:02:24;;;;;;;2.60;2.40;;;18.10;62.30;;;;;;4999479;28;20069;-77
2023/05/04 07:04:51;;;;;;;2.65;2.45;;;16.90;66.10;;;;;;4998178;28;20018;-78
2023/05/04 07:07:17;;;;;;;4.13;3.72;;;15.90;69.60;;;;;;4998865;28;20038;-78
2023/05/04 07:09:43;;;;;;;5.10;4.45;;;15.10;72.80;;;;;;4998533;28;20053;-78
2023/05/04 07:12:08;;;;;;;5.40;4.78;;;14.40;75.70;;;;;;4999579;28;20022;-78
2023/05/04 07:14:34;;;;;;;6.07;4.40;;;14.00;78.30;;;;;;4981999;28;20117;-79
2023/05/04 07:17:00;;;;;;;3.78;3.47;;;13.80;80.40;;;;;;4981796;28;20113;-77
2023/05/04 07:19:26;;;;;;;4.15;3.38;;;13.80;81.60;;;;;;4980986;28;20025;-77
2023/05/04 07:21:52;;;;;;;4.18;3.63;;;13.80;82.50;;;;;;5001512;28;20038;-77
2023/05/04 07:24:17;;;;;;;5.25;4.75;;;13.70;83.00;;;;;;4983757;28;20049;-78
2023/05/04 07:26:43;;;;;;;6.20;5.60;;;13.70;83.80;;;;;;4997630;28;20022;-77
2023/05/04 07:29:10;;;;;;;4.97;4.47;;;13.60;84.30;;;;;;5005333;28;20090;-78
2023/05/04 07:31:37;;;;;;;4.63;3.92;;;13.60;85.20;;;;;;5002296;28;20507;-77
2023/05/04 07:34:06;;;;;;;10.52;5.53;;;13.70;85.60;;;;;;5002408;28;20038;-78
2023/05/04 07:36:34;;;;;;;6.13;3.88;;;13.80;86.20;;;;;;4999957;28;20053;-78
2023/05/04 07:39:01;;;;;;;8.32;4.88;;;13.90;85.70;;;;;;4985004;28;20025;-79
2023/05/04 07:41:27;;;;;;;6.68;4.50;;;14.10;85.30;;;;;;4984999;28;20490;-78
2023/05/04 07:43:53;;;;;;;3.53;3.22;;;14.10;84.40;;;;;;4999222;28;20046;-77
2023/05/04 07:46:19;;;;;;;5.88;5.28;;;14.20;84.80;;;;;;5000672;28;20022;-79
2023/05/04 07:48:44;;;;;;;4.45;3.83;;;14.30;83.70;;;;;;5001413;28;20396;-78
2023/05/04 07:51:14;;;;;;;4.30;3.90;;;14.40;83.60;;;;;;4983096;28;20109;-76
2023/05/04 07:53:40;;;;;;;3.30;2.90;;;14.60;82.90;;;;;;4981663;28;20124;-77
2023/05/04 07:56:12;;;;;;;8.43;4.47;;;14.90;82.10;;;;;;4998640;28;20054;-77
2023/05/04 07:58:40;;;;;;;4.15;3.58;;;15.00;80.80;;;;;;4981257;28;20046;-79
2023/05/04 08:01:05;;;;;;;3.40;3.10;;;15.10;80.30;;;;;;4999776;28;20050;-77
2023/05/04 08:03:31;;;;;;;3.05;2.65;;;15.30;79.40;;;;;;5000081;28;20043;-78
2023/05/04 08:05:57;;;;;;;3.17;2.88;;;15.40;78.70;;;;;;4984864;28;20053;-77
2023/05/04 08:08:23;;;;;;;3.20;2.88;;;15.40;77.90;;;;;;4985612;28;20045;-77
2023/05/04 08:10:48;;;;;;;4.32;3.85;;;15.40;77.60;;;;;;4984592;28;20111;-77
2023/05/04 08:13:14;;;;;;;4.00;3.67;;;15.40;77.00;;;;;;5002668;28;20458;-76
2023/05/04 08:15:40;;;;;;;4.45;3.70;;;15.40;76.40;;;;;;4986387;28;20041;-76
2023/05/04 08:18:06;;;;;;;4.18;3.78;;;15.50;76.10;;;;;;5010167;28;20010;-77
2023/05/04 08:20:31;;;;;;;5.28;3.58;;;15.50;75.10;;;;;;5010848;28;20027;-77
2023/05/04 08:22:58;;;;;;;5.28;4.10;;;15.50;75.20;;;;;;5007496;28;20045;-77
2023/05/04 08:25:24;;;;;;;4.22;3.30;;;15.60;74.10;;;;;;5006213;28;20363;-78
2023/05/04 08:27:50;;;;;;;3.67;3.30;;;15.60;73.90;;;;;;5007327;28;20026;-76
2023/05/04 08:30:16;;;;;;;3.45;3.05;;;15.70;73.40;;;;;;5008208;28;20077;-76
2023/05/04 08:32:41;;;;;;;4.43;2.67;;;15.80;73.10;;;;;;4991757;28;20061;-78
2023/05/04 08:35:07;;;;;;;6.25;3.72;;;16.00;72.70;;;;;;4991169;28;20022;-77
2023/05/04 08:37:33;;;;;;;3.45;3.13;;;16.10;70.60;;;;;;5001794;28;20026;-78
2023/05/04 08:39:59;;;;;;;4.60;2.40;;;16.10;70.30;;;;;;4997703;28;20023;-78
2023/05/04 08:42:29;;;;;;;4.93;2.72;;;16.10;69.90;;;;;;5002436;28;20107;-77
2023/05/04 08:44:57;;;;;;;4.18;2.72;;;16.30;68.60;;;;;;5012721;28;20070;-78
2023/05/04 08:47:24;;;;;;;3.83;2.30;;;16.30;67.40;;;;;;5006677;28;20057;-77
2023/05/04 08:49:57;;;;;;;3.60;2.67;;;16.40;66.80;;;;;;5003953;28;20026;-77
2023/05/04 08:52:24;;;;;;;5.68;3.05;;;16.50;65.40;;;;;;4999540;28;20045;-78
2023/05/04 08:54:54;;;;;;;3.20;2.90;;;16.50;64.80;;;;;;5002387;28;20109;-76
2023/05/04 08:57:23;;;;;;;3.67;2.40;;;16.70;64.90;;;;;;5006456;28;20030;-77
2023/05/04 08:59:54;;;;;;;2.28;2.05;;;16.90;64.60;;;;;;4980361;28;20061;-78
2023/05/04 09:02:23;;;;;;;2.05;1.92;;;17.10;64.20;;;;;;4996942;28;20110;-76
2023/05/04 09:04:50;;;;;;;2.05;1.80;;;17.20;63.60;;;;;;5000701;28;20027;-77
2023/05/04 09:07:20;;;;;;;2.00;1.85;;;17.50;63.10;;;;;;5000080;28;20018;-77
2023/05/04 09:09:47;;;;;;;2.72;2.40;;;17.70;62.00;;;;;;4982866;28;20035;-77
2023/05/04 09:12:13;;;;;;;2.65;1.85;;;17.80;61.00;;;;;;5001460;28;20514;-76
2023/05/04 09:14:40;;;;;;;3.55;2.58;;;17.80;61.30;;;;;;4985427;28;20115;-76
2023/05/04 09:17:14;;;;;;;3.72;3.42;;;17.80;60.40;;;;;;5008310;28;20538;-77
2023/05/04 09:19:42;;;;;;;2.88;2.33;;;17.90;60.30;;;;;;5008956;28;20095;-77
2023/05/04 09:22:18;;;;;;;3.00;2.75;;;17.80;60.10;;;;;;4996937;28;20027;-77
2023/05/04 09:24:44;;;;;;;5.53;3.28;;;17.80;59.70;;;;;;4997292;28;20022;-78
2023/05/04 09:27:17;;;;;;;3.22;2.10;;;17.90;59.90;;;;;;4982354;28;20132;-78
2023/05/04 09:29:43;;;;;;;4.72;3.53;;;18.10;59.40;;;;;;5007477;28;20026;-78
2023/05/04 09:32:15;;;;;;;3.22;2.40;;;18.20;58.70;;;;;;5011239;28;20026;-77
2023/05/04 09:35:07;;;;;;;3.50;3.13;;;18.30;58.70;;;;;;4998323;28;20477;-78
2023/05/04 09:37:45;;;;;;;4.03;3.45;;;18.30;58.10;;;;;;4977979;28;20061;-78
2023/05/04 09:40:12;;;;;;;2.63;2.42;;;18.30;57.30;;;;;;4995929;28;20023;-77
2023/05/04 09:42:37;;;;;;;2.75;2.40;;;18.40;57.30;;;;;;4982203;28;20046;-77
2023/05/04 09:45:05;;;;;;;3.53;2.45;;;18.40;57.30;;;;;;5000110;28;20332;-78
2023/05/04 09:47:41;;;;;;;4.20;2.83;;;18.60;57.60;;;;;;4997786;28;20527;-78
2023/05/04 09:50:17;;;;;;;3.00;2.65;;;18.70;57.70;;;;;;4980734;28;20066;-77
2023/05/04 09:52:44;;;;;;;2.53;2.20;;;18.90;56.90;;;;;;4980518;28;20027;-77
2023/05/04 09:55:12;;;;;;;2.92;2.72;;;19.10;56.90;;;;;;4985261;28;20022;-77
2023/05/04 09:57:40;;;;;;;2.25;2.05;;;19.20;56.20;;;;;;4983364;28;20028;-77
2023/05/04 10:00:16;;;;;;;2.60;2.40;;;19.10;55.60;;;;;;5000691;28;20076;-77
2023/05/04 10:02:46;;;;;;;3.75;3.35;;;19.30;55.70;;;;;;5000847;28;20022;-77
2023/05/04 10:05:20;;;;;;;2.60;2.40;;;19.40;54.20;;;;;;5000589;28;20030;-77
2023/05/04 10:07:46;;;;;;;2.42;2.22;;;19.20;54.60;;;;;;5001738;28;20031;-77
2023/05/04 10:10:13;;;;;;;3.13;2.85;;;19.40;55.40;;;;;;5002431;28;20057;-78
2023/05/04 10:12:40;;;;;;;4.38;2.97;;;19.60;55.30;;;;;;4987394;28;20108;-78
2023/05/04 10:15:13;;;;;;;2.75;2.22;;;19.70;55.20;;;;;;5002242;28;20104;-79
2023/05/04 10:18:08;;;;;;;1.98;1.88;;;19.70;52.90;;;;;;4957382;28;20081;-77
2023/05/04 10:20:51;;;;;;;1.83;1.73;;;19.60;52.60;;;;;;4998069;28;20038;-77
2023/05/04 10:23:52;;;;;;;2.55;2.35;;;19.80;52.80;;;;;;4998992;28;20113;-77
2023/05/04 10:26:40;;;;;;;3.42;3.00;;;20.00;52.90;;;;;;4981167;28;20030;-78
2023/05/04 10:29:20;;;;;;;2.38;2.03;;;19.90;53.30;;;;;;4999665;28;20023;-78
2023/05/04 10:31:46;;;;;;;1.70;1.60;;;20.00;54.10;;;;;;4986877;28;20022;-78
2023/05/04 10:34:23;;;;;;;3.40;2.53;;;20.30;52.90;;;;;;5011371;28;20030;-77
2023/05/04 10:36:49;;;;;;;3.42;3.13;;;20.50;52.30;;;;;;5000235;28;20027;-78
2023/05/04 10:39:25;;;;;;;3.58;2.83;;;20.40;52.80;;;;;;5000347;28;20032;-77
2023/05/04 10:42:06;;;;;;;4.30;2.33;;;20.20;53.00;;;;;;4999091;28;20096;-78
2023/05/04 10:44:53;;;;;;;3.20;2.05;;;20.10;53.60;;;;;;4998036;28;20134;-77
2023/05/04 10:47:31;;;;;;;2.95;2.40;;;20.20;54.50;;;;;;4980907;28;20448;-78
2023/05/04 10:50:14;;;;;;;6.32;4.18;;;20.50;54.50;;;;;;4996933;28;20030;-76
2023/05/04 10:52:52;;;;;;;4.25;3.58;;;20.60;54.60;;;;;;4999032;28;20109;-78
2023/05/04 10:55:19;;;;;;;4.38;3.10;;;20.50;55.60;;;;;;4997350;28;20033;-78
2023/05/04 10:57:53;;;;;;;3.83;2.42;;;20.50;55.70;;;;;;4997417;28;20033;-77
2023/05/04 11:00:19;;;;;;;3.17;2.33;;;20.80;54.10;;;;;;4979061;28;20101;-78
2023/05/04 11:02:46;;;;;;;2.65;1.85;;;20.90;52.30;;;;;;4996942;28;20061;-77
2023/05/04 11:05:17;;;;;;;2.42;2.13;;;21.10;52.00;;;;;;4978479;28;20034;-79
2023/05/04 11:07:43;;;;;;;4.50;3.30;;;21.30;51.50;;;;;;4997523;28;20448;-78
2023/05/04 11:10:23;;;;;;;3.50;3.20;;;21.20;51.90;;;;;;4998037;28;20038;-78
2023/05/04 11:12:49;;;;;;;3.05;2.72;;;21.00;53.40;;;;;;4999481;28;20026;-78
2023/05/04 11:15:15;;;;;;;5.78;2.70;;;21.10;53.80;;;;;;4997602;28;20033;-77
2023/05/04 11:17:59;;;;;;;3.50;3.15;;;21.20;53.20;;;;;;4997096;28;20026;-78
2023/05/04 11:20:26;;;;;;;4.30;3.90;;;21.10;51.80;;;;;;4998288;28;20391;-77
2023/05/04 11:22:53;;;;;;;4.95;4.30;;;20.80;52.30;;;;;;4999339;28;20557;-78
2023/05/04 11:25:28;;;;;;;4.70;3.40;;;20.70;52.20;;;;;;5000006;28;20022;-77
2023/05/04 11:27:54;;;;;;;5.20;3.13;;;20.60;53.20;;;;;;4999714;28;20030;-78
2023/05/04 11:30:21;;;;;;;2.60;2.40;;;20.70;53.60;;;;;;5003438;28;20026;-77
2023/05/04 11:32:46;;;;;;;5.95;3.30;;;21.00;53.60;;;;;;4987087;28;20090;-77
2023/05/04 11:35:26;;;;;;;4.35;3.95;;;21.10;51.90;;;;;;5003178;28;20065;-78
2023/05/04 11:37:52;;;;;;;5.13;4.03;;;21.00;51.60;;;;;;4997389;28;20786;-77
2023/05/04 11:40:21;;;;;;;4.78;4.07;;;20.90;52.60;;;;;;4997910;28;20045;-77
2023/05/04 11:42:50;;;;;;;3.72;3.42;;;20.70;53.50;;;;;;4997845;28;20519;-77
2023/05/04 11:45:27;;;;;;;5.97;2.72;;;20.70;53.50;;;;;;4996919;28;20045;-79
2023/05/04 11:47:55;;;;;;;4.90;3.70;;;20.90;53.70;;;;;;4988140;28;20049;-76
2023/05/04 11:50:21;;;;;;;5.10;4.28;;;21.20;52.90;;;;;;4998167;28;20040;-79
2023/05/04 11:52:48;;;;;;;5.47;3.50;;;21.20;51.80;;;;;;4998858;28;20022;-80
2023/05/04 11:55:27;;;;;;;5.50;3.53;;;21.20;52.00;;;;;;4980360;28;20117;-78
2023/05/04 11:58:00;;;;;;;4.75;3.85;;;21.20;51.80;;;;;;4979038;28;20442;-76
2023/05/04 12:00:38;;;;;;;6.05;3.55;;;21.10;52.00;;;;;;4998866;28;20019;-77
2023/05/04 12:03:06;;;;;;;4.22;2.55;;;21.20;52.40;;;;;;4981818;28;20435;-76
2023/05/04 12:05:33;;;;;;;3.33;2.67;;;21.40;51.80;;;;;;5006987;28;20034;-78
2023/05/04 12:07:59;;;;;;;3.67;2.28;;;21.50;51.20;;;;;;4995739;28;20090;-78
2023/05/04 12:10:34;;;;;;;3.50;3.20;;;21.60;51.10;;;;;;5011512;28;20041;-76
2023/05/04 12:13:13;;;;;;;6.53;4.15;;;21.80;50.80;;;;;;5010887;28;20083;-77
2023/05/04 12:15:39;;;;;;;5.35;3.63;;;;;;;;;;5010209;28;20026;-76
2023/05/04 12:18:05;;;;;;;4.85;4.20;;;21.60;49.40;;;;;;4997198;28;20022;-77
2023/05/04 12:20:31;;;;;;;4.82;3.33;;;21.50;50.00;;;;;;4993702;28;20050;-78
2023/05/04 12:22:57;;;;;;;3.42;3.13;;;21.40;50.50;;;;;;5008522;28;20070;-77
2023/05/04 12:25:23;;;;;;;4.55;3.55;;;21.50;50.30;;;;;;4994736;28;20434;-76
2023/05/04 12:27:50;;;;;;;2.28;2.08;;;21.60;49.80;;;;;;4979101;28;20038;-77
2023/05/04 12:30:16;;;;;;;2.17;2.00;;;21.80;49.80;;;;;;4995637;28;20134;-77
2023/05/04 12:32:42;;;;;;;2.58;2.38;;;22.10;49.30;;;;;;4996633;28;20147;-77
2023/05/04 12:35:08;;;;;;;3.20;2.50;;;22.30;48.40;;;;;;4995974;28;20022;-77
2023/05/04 12:37:34;;;;;;;5.78;4.28;;;22.50;48.40;;;;;;4977732;28;20023;-77
2023/05/04 12:39:59;;;;;;;4.15;2.90;;;22.70;47.90;;;;;;4997016;28;20078;-78
2023/05/04 12:42:25;;;;;;;5.05;3.97;;;22.60;48.30;;;;;;4998414;28;20022;-77
2023/05/04 12:44:52;;;;;;;4.65;3.33;;;22.40;47.80;;;;;;4994807;28;20036;-78
2023/05/04 12:47:19;;;;;;;2.28;2.08;;;22.20;48.10;;;;;;4996228;28;20058;-77
2023/05/04 12:49:45;;;;;;;5.63;3.08;;;22.30;48.90;;;;;;4995341;28;20026;-77
2023/05/04 12:52:11;;;;;;;4.43;2.85;;;22.60;47.70;;;;;;4996709;28;20026;-77
2023/05/04 12:54:37;;;;;;;2.17;1.98;;;22.80;47.60;;;;;;4996080;28;20443;-77